createdAt,value
2023-01-10T00:00:08.506Z,4.10
2023-01-10T00:01:08.455Z,4.10
2023-01-10T00:02:08.435Z,4.30
2023-01-10T00:03:08.423Z,4.30
2023-01-10T00:04:08.408Z,4.40
2023-01-10T00:05:08.403Z,4.40
2023-01-10T00:06:08.402Z,4.50
2023-01-10T00:07:08.379Z,5.00
2023-01-10T00:08:08.364Z,5.20
2023-01-10T00:09:08.353Z,5.20
2023-01-10T00:10:08.349Z,5.80
2023-01-10T00:11:08.343Z,5.60
2023-01-10T00:12:08.331Z,5.40
2023-01-10T00:13:08.317Z,5.30
2023-01-10T00:14:08.309Z,5.80
2023-01-10T00:15:08.295Z,6.30
2023-01-10T00:16:08.386Z,5.60
2023-01-10T00:17:08.277Z,6.00
2023-01-10T00:18:08.254Z,6.40
2023-01-10T00:19:08.247Z,6.20
2023-01-10T00:20:08.238Z,5.80
2023-01-10T00:21:08.241Z,5.90
2023-01-10T00:22:08.205Z,6.50
2023-01-10T00:23:08.204Z,6.30
2023-01-10T00:24:08.186Z,6.30
2023-01-10T00:25:08.185Z,6.10
2023-01-10T00:26:08.186Z,6.40
2023-01-10T00:27:08.161Z,5.60
2023-01-10T00:28:08.142Z,6.50
2023-01-10T00:29:08.135Z,6.30
2023-01-10T00:30:08.120Z,6.70
2023-01-10T00:31:08.152Z,6.30
2023-01-10T00:32:08.104Z,6.10
2023-01-10T00:33:08.100Z,6.30
2023-01-10T00:34:08.078Z,6.20
2023-01-10T00:35:08.111Z,6.20
2023-01-10T00:36:08.136Z,6.60
2023-01-10T00:37:08.049Z,6.70
2023-01-10T00:38:08.035Z,6.60
2023-01-10T00:39:08.031Z,7.00
2023-01-10T00:40:08.017Z,6.40
2023-01-10T00:41:08.013Z,7.10
2023-01-10T00:42:07.992Z,6.10
2023-01-10T00:43:07.977Z,6.60
2023-01-10T00:44:07.982Z,7.20
2023-01-10T00:45:07.968Z,6.80
2023-01-10T00:46:14.017Z,6.60
2023-01-10T00:47:07.943Z,6.70
2023-01-10T00:48:07.927Z,6.60
2023-01-10T00:49:07.914Z,6.90
2023-01-10T00:50:07.909Z,6.70
2023-01-10T00:51:07.902Z,7.00
2023-01-10T00:52:07.885Z,6.90
2023-01-10T00:53:07.870Z,6.90
2023-01-10T00:54:07.862Z,6.70
2023-01-10T00:55:07.850Z,6.70
2023-01-10T00:56:07.851Z,6.50
2023-01-10T00:57:07.825Z,7.00
2023-01-10T00:58:07.817Z,6.70
2023-01-10T00:59:07.802Z,7.40
2023-01-10T01:00:07.795Z,6.30
2023-01-10T01:01:07.933Z,7.10
2023-01-10T01:02:07.846Z,6.80
2023-01-10T01:03:07.848Z,6.50
2023-01-10T01:04:07.755Z,6.30
2023-01-10T01:05:07.747Z,6.90
2023-01-10T01:06:07.748Z,6.60
2023-01-10T01:07:07.723Z,6.90
2023-01-10T01:08:07.719Z,6.60
2023-01-10T01:09:07.701Z,6.90
2023-01-10T01:10:07.700Z,6.50
2023-01-10T01:11:07.693Z,6.90
2023-01-10T01:12:07.664Z,6.70
2023-01-10T01:13:07.652Z,6.20
2023-01-10T01:14:07.644Z,7.00
2023-01-10T01:15:07.632Z,5.90
2023-01-10T01:16:07.685Z,6.90
2023-01-10T01:17:07.614Z,6.60
2023-01-10T01:18:07.596Z,6.90
2023-01-10T01:19:07.585Z,6.60
2023-01-10T01:20:07.575Z,6.80
2023-01-10T01:21:07.559Z,6.50
2023-01-10T01:22:07.563Z,7.00
2023-01-10T01:23:07.540Z,6.80
2023-01-10T01:24:07.532Z,6.80
2023-01-10T01:25:07.514Z,7.00
2023-01-10T01:26:07.508Z,6.70
2023-01-10T01:27:07.514Z,6.70
2023-01-10T01:28:07.486Z,6.30
2023-01-10T01:29:07.471Z,6.50
2023-01-10T01:30:07.489Z,6.30
2023-01-10T01:31:07.540Z,6.50
2023-01-10T01:32:07.456Z,7.00
2023-01-10T01:33:07.430Z,6.50
2023-01-10T01:34:07.423Z,6.50
2023-01-10T01:35:07.404Z,6.30
2023-01-10T01:36:07.396Z,7.10
2023-01-10T01:37:07.392Z,6.80
2023-01-10T01:38:07.380Z,6.60
2023-01-10T01:39:07.361Z,5.90
2023-01-10T01:40:07.359Z,6.80
2023-01-10T01:41:07.339Z,6.30
2023-01-10T01:42:07.343Z,6.90
2023-01-10T01:43:07.318Z,6.30
2023-01-10T01:44:07.318Z,7.00
2023-01-10T01:45:07.310Z,5.90
2023-01-10T01:46:07.313Z,5.70
2023-01-10T01:47:07.283Z,6.40
2023-01-10T01:48:07.266Z,6.20
2023-01-10T01:49:07.266Z,6.40
2023-01-10T01:50:07.245Z,6.20
2023-01-10T01:51:07.230Z,6.60
2023-01-10T01:52:07.231Z,6.60
2023-01-10T01:53:07.206Z,6.50
2023-01-10T01:54:07.200Z,6.20
2023-01-10T01:55:07.195Z,7.20
2023-01-10T01:56:07.189Z,5.80
2023-01-10T01:57:07.176Z,6.30
2023-01-10T01:58:07.157Z,6.00
2023-01-10T01:59:07.143Z,5.50
2023-01-10T02:00:07.135Z,6.20
2023-01-10T02:01:07.131Z,5.60
2023-01-10T02:02:07.164Z,5.80
2023-01-10T02:03:07.160Z,5.80
2023-01-10T02:04:07.179Z,5.60
2023-01-10T02:05:07.074Z,5.90
2023-01-10T02:06:07.068Z,5.50
2023-01-10T02:07:07.065Z,5.70
2023-01-10T02:08:07.048Z,5.50
2023-01-10T02:09:07.038Z,5.60
2023-01-10T02:10:07.027Z,5.50
2023-01-10T02:11:07.011Z,5.90
2023-01-10T02:12:07.011Z,6.30
2023-01-10T02:13:07.000Z,5.60
2023-01-10T02:14:06.967Z,5.70
2023-01-10T02:15:06.966Z,5.90
2023-01-10T02:16:06.982Z,6.10
2023-01-10T02:17:06.961Z,5.50
2023-01-10T02:18:06.931Z,5.80
2023-01-10T02:19:06.921Z,5.60
2023-01-10T02:20:06.906Z,5.50
2023-01-10T02:21:06.898Z,5.80
2023-01-10T02:22:06.884Z,5.50
2023-01-10T02:23:06.893Z,6.30
2023-01-10T02:24:06.859Z,5.80
2023-01-10T02:25:06.851Z,5.00
2023-01-10T02:26:06.839Z,5.70
2023-01-10T02:27:06.832Z,5.90
2023-01-10T02:28:06.827Z,5.50
2023-01-10T02:29:06.810Z,5.70
2023-01-10T02:30:06.794Z,6.30
2023-01-10T02:31:06.845Z,5.30
2023-01-10T02:32:06.779Z,5.70
2023-01-10T02:33:06.777Z,4.80
2023-01-10T02:34:06.755Z,5.40
2023-01-10T02:35:06.749Z,5.50
2023-01-10T02:36:06.726Z,5.00
2023-01-10T02:37:06.719Z,5.30
2023-01-10T02:38:06.714Z,5.00
2023-01-10T02:39:06.704Z,5.70
2023-01-10T02:40:06.697Z,5.10
2023-01-10T02:41:06.685Z,4.80
2023-01-10T02:42:06.660Z,5.00
2023-01-10T02:43:06.663Z,4.80
2023-01-10T02:44:06.658Z,5.10
2023-01-10T02:45:06.631Z,5.50
2023-01-10T02:46:06.632Z,5.50
2023-01-10T02:47:06.608Z,5.70
2023-01-10T02:48:06.604Z,5.60
2023-01-10T02:49:06.597Z,4.60
2023-01-10T02:50:06.570Z,5.20
2023-01-10T02:51:06.562Z,5.10
2023-01-10T02:52:06.554Z,5.40
2023-01-10T02:53:06.551Z,5.10
2023-01-10T02:54:06.530Z,5.10
2023-01-10T02:55:06.524Z,4.90
2023-01-10T02:56:06.513Z,5.10
2023-01-10T02:57:06.498Z,5.10
2023-01-10T02:58:06.494Z,4.80
2023-01-10T02:59:06.486Z,5.40
2023-01-10T03:00:06.470Z,5.30
2023-01-10T03:01:06.541Z,5.00
2023-01-10T03:02:06.481Z,5.10
2023-01-10T03:03:06.439Z,5.10
2023-01-10T03:04:06.421Z,5.10
2023-01-10T03:05:06.518Z,5.20
2023-01-10T03:06:06.391Z,5.00
2023-01-10T03:07:06.393Z,5.50
2023-01-10T03:08:06.383Z,5.10
2023-01-10T03:09:06.367Z,5.30
2023-01-10T03:10:06.347Z,5.40
2023-01-10T03:11:06.343Z,5.00
2023-01-10T03:12:06.328Z,5.30
2023-01-10T03:13:06.328Z,4.50
2023-01-10T03:14:06.301Z,5.10
2023-01-10T03:15:06.300Z,5.10
2023-01-10T03:16:06.323Z,5.20
2023-01-10T03:17:06.281Z,5.50
2023-01-10T03:18:06.272Z,4.90
2023-01-10T03:19:06.252Z,5.00
2023-01-10T03:20:06.267Z,4.70
2023-01-10T03:21:06.229Z,4.40
2023-01-10T03:22:06.215Z,4.80
2023-01-10T03:23:06.218Z,5.80
2023-01-10T03:24:06.196Z,5.20
2023-01-10T03:25:06.185Z,5.10
2023-01-10T03:26:06.173Z,4.70
2023-01-10T03:27:06.233Z,4.80
2023-01-10T03:28:06.170Z,4.70
2023-01-10T03:29:06.145Z,5.20
2023-01-10T03:30:06.125Z,4.90
2023-01-10T03:31:06.158Z,4.90
2023-01-10T03:32:06.105Z,4.70
2023-01-10T03:33:06.098Z,4.90
2023-01-10T03:34:06.092Z,5.30
2023-01-10T03:35:06.086Z,4.60
2023-01-10T03:36:06.098Z,5.10
2023-01-10T03:37:06.056Z,5.40
2023-01-10T03:38:06.056Z,5.10
2023-01-10T03:39:06.041Z,5.10
2023-01-10T03:40:06.022Z,4.90
2023-01-10T03:41:06.017Z,4.50
2023-01-10T03:42:05.995Z,4.70
2023-01-10T03:43:05.984Z,4.70
2023-01-10T03:44:05.986Z,4.70
2023-01-10T03:45:05.968Z,5.30
2023-01-10T03:46:05.949Z,4.40
2023-01-10T03:47:05.941Z,4.60
2023-01-10T03:48:05.939Z,4.70
2023-01-10T03:49:05.940Z,5.00
2023-01-10T03:50:05.910Z,4.70
2023-01-10T03:51:05.913Z,4.70
2023-01-10T03:52:05.886Z,4.30
2023-01-10T03:53:05.894Z,4.40
2023-01-10T03:54:05.886Z,3.90
2023-01-10T03:55:05.848Z,4.10
2023-01-10T03:56:05.843Z,4.20
2023-01-10T03:57:05.831Z,4.10
2023-01-10T03:58:05.820Z,4.00
2023-01-10T03:59:05.818Z,4.20
2023-01-10T04:00:05.799Z,4.40
2023-01-10T04:01:05.947Z,4.30
2023-01-10T04:02:05.910Z,3.80
2023-01-10T04:03:05.761Z,4.20
2023-01-10T04:04:05.843Z,3.80
2023-01-10T04:05:05.746Z,4.10
2023-01-10T04:06:05.730Z,3.40
2023-01-10T04:07:05.736Z,4.10
2023-01-10T04:08:05.717Z,3.70
2023-01-10T04:09:05.705Z,3.60
2023-01-10T04:10:05.707Z,3.70
2023-01-10T04:11:05.671Z,3.60
2023-01-10T04:12:05.668Z,4.30
2023-01-10T04:13:05.654Z,3.90
2023-01-10T04:14:05.665Z,4.00
2023-01-10T04:15:05.643Z,3.50
2023-01-10T04:16:05.677Z,3.70
2023-01-10T04:17:05.605Z,4.10
2023-01-10T04:18:05.602Z,3.50
2023-01-10T04:19:05.600Z,3.60
2023-01-10T04:20:05.577Z,3.50
2023-01-10T04:21:05.558Z,3.30
2023-01-10T04:22:05.572Z,4.10
2023-01-10T04:23:05.562Z,3.00
2023-01-10T04:24:05.551Z,3.70
2023-01-10T04:25:05.527Z,3.50
2023-01-10T04:26:05.511Z,3.30
2023-01-10T04:27:05.499Z,3.70
2023-01-10T04:28:05.495Z,3.50
2023-01-10T04:29:05.492Z,3.60
2023-01-10T04:30:05.471Z,3.10
2023-01-10T04:31:05.452Z,3.40
2023-01-10T04:32:05.454Z,3.40
2023-01-10T04:33:05.433Z,3.60
2023-01-10T04:34:05.433Z,3.30
2023-01-10T04:35:05.411Z,3.70
2023-01-10T04:36:05.404Z,3.30
2023-01-10T04:37:05.395Z,3.30
2023-01-10T04:38:05.384Z,3.20
2023-01-10T04:39:05.406Z,3.60
2023-01-10T04:40:05.383Z,3.70
2023-01-10T04:41:05.362Z,3.40
2023-01-10T04:42:05.349Z,3.30
2023-01-10T04:43:05.319Z,3.50
2023-01-10T04:44:05.329Z,4.00
2023-01-10T04:45:05.301Z,3.40
2023-01-10T04:46:05.371Z,3.10
2023-01-10T04:47:05.289Z,3.90
2023-01-10T04:48:05.270Z,3.60
2023-01-10T04:49:05.263Z,3.40
2023-01-10T04:50:05.247Z,3.90
2023-01-10T04:51:05.231Z,3.60
2023-01-10T04:52:05.227Z,3.30
2023-01-10T04:53:05.217Z,3.10
2023-01-10T04:54:05.221Z,3.20
2023-01-10T04:55:05.192Z,3.20
2023-01-10T04:56:05.182Z,3.40
2023-01-10T04:57:05.173Z,3.10
2023-01-10T04:58:05.159Z,3.40
2023-01-10T04:59:05.165Z,3.60
2023-01-10T05:00:05.139Z,3.50
2023-01-10T05:01:05.185Z,3.00
2023-01-10T05:02:05.286Z,3.60
2023-01-10T05:03:05.378Z,3.60
2023-01-10T05:04:05.110Z,3.00
2023-01-10T05:05:05.131Z,3.50
2023-01-10T05:06:05.072Z,3.60
2023-01-10T05:07:05.055Z,3.20
2023-01-10T05:08:05.045Z,3.40
2023-01-10T05:09:05.037Z,3.50
2023-01-10T05:10:05.028Z,4.00
2023-01-10T05:11:05.014Z,3.60
2023-01-10T05:12:04.997Z,3.80
2023-01-10T05:13:04.983Z,3.60
2023-01-10T05:14:04.980Z,4.20
2023-01-10T05:15:04.985Z,4.00
2023-01-10T05:16:04.963Z,4.00
2023-01-10T05:17:04.941Z,3.60
2023-01-10T05:18:04.975Z,4.20
2023-01-10T05:19:04.932Z,3.90
2023-01-10T05:20:04.924Z,4.10
2023-01-10T05:21:04.902Z,4.50
2023-01-10T05:22:04.888Z,4.90
2023-01-10T05:23:04.889Z,4.40
2023-01-10T05:24:04.865Z,4.80
2023-01-10T05:25:04.895Z,4.70
2023-01-10T05:26:04.845Z,4.00
2023-01-10T05:27:04.829Z,4.60
2023-01-10T05:28:04.826Z,4.70
2023-01-10T05:29:04.815Z,4.50
2023-01-10T05:30:04.809Z,5.00
2023-01-10T05:31:04.783Z,5.00
2023-01-10T05:32:04.784Z,4.70
2023-01-10T05:33:04.766Z,4.90
2023-01-10T05:34:04.755Z,5.00
2023-01-10T05:35:04.757Z,4.80
2023-01-10T05:36:04.731Z,4.50
2023-01-10T05:37:04.719Z,4.90
2023-01-10T05:38:04.713Z,4.80
2023-01-10T05:39:04.694Z,5.00
2023-01-10T05:40:04.706Z,4.50
2023-01-10T05:41:04.674Z,4.90
2023-01-10T05:42:04.673Z,4.90
2023-01-10T05:43:04.661Z,5.00
2023-01-10T05:44:04.643Z,5.10
2023-01-10T05:45:04.643Z,5.70
2023-01-10T05:46:04.669Z,5.10
2023-01-10T05:47:04.607Z,5.40
2023-01-10T05:48:04.598Z,5.80
2023-01-10T05:49:04.583Z,5.20
2023-01-10T05:50:04.590Z,5.50
2023-01-10T05:51:04.584Z,5.20
2023-01-10T05:52:04.557Z,5.40
2023-01-10T05:53:04.536Z,4.70
2023-01-10T05:54:04.537Z,5.20
2023-01-10T05:55:04.551Z,4.80
2023-01-10T05:56:04.526Z,5.70
2023-01-10T05:57:04.495Z,5.60
2023-01-10T05:58:04.490Z,5.30
2023-01-10T05:59:09.586Z,5.20
2023-01-10T06:00:05.236Z,5.70
2023-01-10T06:01:04.500Z,5.10
2023-01-10T06:02:04.477Z,5.20
2023-01-10T06:03:04.532Z,5.10
2023-01-10T06:04:04.420Z,5.20
2023-01-10T06:05:04.445Z,5.40
2023-01-10T06:06:04.404Z,5.60
2023-01-10T06:07:04.390Z,5.70
2023-01-10T06:08:04.375Z,5.70
2023-01-10T06:09:04.359Z,5.70
2023-01-10T06:10:04.367Z,5.20
2023-01-10T06:11:04.340Z,5.70
2023-01-10T06:12:04.340Z,5.50
2023-01-10T06:13:04.316Z,5.60
2023-01-10T06:14:04.320Z,5.10
2023-01-10T06:15:04.345Z,5.60
2023-01-10T06:16:04.324Z,5.80
2023-01-10T06:17:04.271Z,5.40
2023-01-10T06:18:04.271Z,5.60
2023-01-10T06:19:04.250Z,5.90
2023-01-10T06:20:04.252Z,5.60
2023-01-10T06:21:04.225Z,5.50
2023-01-10T06:22:04.216Z,5.50
2023-01-10T06:23:04.212Z,5.50
2023-01-10T06:24:04.194Z,5.20
2023-01-10T06:25:04.208Z,5.60
2023-01-10T06:26:04.174Z,5.80
2023-01-10T06:27:04.177Z,6.00
2023-01-10T06:28:04.153Z,5.10
2023-01-10T06:29:04.148Z,5.40
2023-01-10T06:30:04.146Z,5.40
2023-01-10T06:31:04.131Z,5.40
2023-01-10T06:32:04.108Z,5.70
2023-01-10T06:33:04.125Z,5.20
2023-01-10T06:34:04.082Z,5.00
2023-01-10T06:35:04.098Z,5.00
2023-01-10T06:36:04.059Z,5.90
2023-01-10T06:37:04.051Z,4.70
2023-01-10T06:38:04.056Z,5.00
2023-01-10T06:39:04.029Z,5.10
2023-01-10T06:40:04.029Z,4.90
2023-01-10T06:41:04.011Z,5.10
2023-01-10T06:42:03.995Z,4.90
2023-01-10T06:43:03.988Z,4.70
2023-01-10T06:44:03.970Z,4.70
2023-01-10T06:45:04.052Z,4.80
2023-01-10T06:46:03.959Z,5.10
2023-01-10T06:47:58.104Z,5.10
2023-01-10T06:48:59.131Z,4.90
2023-01-10T06:49:59.088Z,5.10
2023-01-10T06:50:59.138Z,4.60
2023-01-10T06:51:59.071Z,5.50
2023-01-10T06:52:59.071Z,4.50
2023-01-10T06:53:59.067Z,4.80
2023-01-10T06:54:59.043Z,4.90
2023-01-10T06:55:59.067Z,4.50
2023-01-10T06:56:59.034Z,5.00
2023-01-10T06:57:59.001Z,5.00
2023-01-10T06:58:58.987Z,4.40
2023-01-10T06:59:58.989Z,4.50
2023-01-10T07:00:59.140Z,5.50
2023-01-10T07:01:59.155Z,5.50
2023-01-10T07:02:58.954Z,4.80
2023-01-10T07:03:58.957Z,5.20
2023-01-10T07:04:58.926Z,4.90
2023-01-10T07:05:58.918Z,4.60
2023-01-10T07:06:58.907Z,4.90
2023-01-10T07:07:59.077Z,4.80
2023-01-10T07:08:58.875Z,4.20
2023-01-10T07:09:58.860Z,4.50
2023-01-10T07:10:58.867Z,4.90
2023-01-10T07:11:58.836Z,4.00
2023-01-10T07:12:58.834Z,4.30
2023-01-10T07:13:58.818Z,4.50
2023-01-10T07:14:58.809Z,4.80
2023-01-10T07:15:58.829Z,4.80
2023-01-10T07:16:58.786Z,4.20
2023-01-10T07:17:58.789Z,4.70
2023-01-10T07:18:58.771Z,4.10
2023-01-10T07:19:58.788Z,4.50
2023-01-10T07:20:58.758Z,4.60
2023-01-10T07:21:58.729Z,4.30
2023-01-10T07:22:58.738Z,4.50
2023-01-10T07:23:59.720Z,4.30
2023-01-10T07:24:58.708Z,4.20
2023-01-10T07:25:58.695Z,4.50
2023-01-10T07:26:58.680Z,4.40
2023-01-10T07:27:58.666Z,5.00
2023-01-10T07:28:58.657Z,4.60
2023-01-10T07:29:58.641Z,5.00
2023-01-10T07:30:58.675Z,4.90
2023-01-10T07:31:58.631Z,4.90
2023-01-10T07:32:58.656Z,5.20
2023-01-10T07:33:58.602Z,4.90
2023-01-10T07:34:58.589Z,4.80
2023-01-10T07:35:58.621Z,4.90
2023-01-10T07:36:58.567Z,5.10
2023-01-10T07:37:58.558Z,5.10
2023-01-10T07:38:58.543Z,5.20
2023-01-10T07:39:58.528Z,5.10
2023-01-10T07:40:58.535Z,4.80
2023-01-10T07:41:58.507Z,5.70
2023-01-10T07:42:58.512Z,5.00
2023-01-10T07:43:58.486Z,5.50
2023-01-10T07:44:58.482Z,5.10
2023-01-10T07:45:58.495Z,5.20
2023-01-10T07:46:58.464Z,5.60
2023-01-10T07:47:58.442Z,5.60
2023-01-10T07:48:58.438Z,4.90
2023-01-10T07:49:58.419Z,6.00
2023-01-10T07:50:58.436Z,5.40
2023-01-10T07:51:58.397Z,5.70
2023-01-10T07:52:58.390Z,4.90
2023-01-10T07:53:58.376Z,5.50
2023-01-10T07:54:58.368Z,5.10
2023-01-10T07:55:58.352Z,5.20
2023-01-10T07:56:58.357Z,5.70
2023-01-10T07:57:58.340Z,5.60
2023-01-10T07:58:58.330Z,5.80
2023-01-10T07:59:58.309Z,5.50
2023-01-10T08:00:58.337Z,5.50
2023-01-10T08:01:58.298Z,5.90
2023-01-10T08:02:58.430Z,5.70
2023-01-10T08:03:58.274Z,5.80
2023-01-10T08:04:58.267Z,6.00
2023-01-10T08:05:58.243Z,5.60
2023-01-10T08:06:58.248Z,5.50
2023-01-10T08:07:58.239Z,5.50
2023-01-10T08:08:58.216Z,5.90
2023-01-10T08:09:58.196Z,5.10
2023-01-10T08:10:58.192Z,5.80
2023-01-10T08:11:58.188Z,5.30
2023-01-10T08:13:03.871Z,5.40
2023-01-10T08:13:58.162Z,5.40
2023-01-10T08:14:58.146Z,5.20
2023-01-10T08:15:58.196Z,5.80
2023-01-10T08:16:58.172Z,5.20
2023-01-10T08:17:58.112Z,5.40
2023-01-10T08:18:58.123Z,5.10
2023-01-10T08:19:58.094Z,5.40
2023-01-10T08:20:58.099Z,5.70
2023-01-10T08:21:58.084Z,6.00
2023-01-10T08:22:58.063Z,5.40
2023-01-10T08:23:58.045Z,5.10
2023-01-10T08:24:58.038Z,5.10
2023-01-10T08:25:58.024Z,5.40
2023-01-10T08:26:58.059Z,5.70
2023-01-10T08:27:58.001Z,5.30
2023-01-10T08:28:57.993Z,5.00
2023-01-10T08:29:57.980Z,5.70
2023-01-10T08:30:57.984Z,5.70
2023-01-10T08:31:57.968Z,5.40
2023-01-10T08:32:57.949Z,5.50
2023-01-10T08:33:57.943Z,5.40
2023-01-10T08:34:57.932Z,5.40
2023-01-10T08:35:57.927Z,5.20
2023-01-10T08:36:57.926Z,6.00
2023-01-10T08:37:57.900Z,5.70
2023-01-10T08:38:57.903Z,4.90
2023-01-10T08:39:57.867Z,5.30
2023-01-10T08:40:57.858Z,5.30
2023-01-10T08:41:57.858Z,4.90
2023-01-10T08:42:57.846Z,5.00
2023-01-10T08:43:57.828Z,5.10
2023-01-10T08:44:59.729Z,5.70
2023-01-10T08:45:57.813Z,5.80
2023-01-10T08:46:57.909Z,5.60
2023-01-10T08:47:57.788Z,5.20
2023-01-10T08:48:57.771Z,5.30
2023-01-10T08:49:57.780Z,5.60
2023-01-10T08:50:57.756Z,5.60
2023-01-10T08:51:57.757Z,5.60
2023-01-10T08:52:57.727Z,5.90
2023-01-10T08:53:57.731Z,5.30
2023-01-10T08:54:57.704Z,6.00
2023-01-10T08:55:57.699Z,5.70
2023-01-10T08:56:57.695Z,6.00
2023-01-10T08:57:57.676Z,5.90
2023-01-10T08:58:57.663Z,5.50
2023-01-10T08:59:57.653Z,5.70
2023-01-10T09:00:57.721Z,5.30
2023-01-10T09:01:57.692Z,5.40
2023-01-10T09:02:57.756Z,6.40
2023-01-10T09:03:57.620Z,5.70
2023-01-10T09:04:57.611Z,5.90
2023-01-10T09:05:57.601Z,5.80
2023-01-10T09:06:57.582Z,5.60
2023-01-10T09:07:57.569Z,5.60
2023-01-10T09:08:57.550Z,6.70
2023-01-10T09:09:57.543Z,6.50
2023-01-10T09:10:57.531Z,6.50
2023-01-10T09:11:57.559Z,6.00
2023-01-10T09:12:57.542Z,6.70
2023-01-10T09:13:57.504Z,6.00
2023-01-10T09:14:57.492Z,6.10
2023-01-10T09:15:57.513Z,6.40
2023-01-10T09:16:57.473Z,6.80
2023-01-10T09:17:57.458Z,7.10
2023-01-10T09:18:57.438Z,7.00
2023-01-10T09:19:57.434Z,6.90
2023-01-10T09:20:57.418Z,6.70
2023-01-10T09:21:57.429Z,6.60
2023-01-10T09:22:57.399Z,6.70
2023-01-10T09:23:57.391Z,6.30
2023-01-10T09:24:57.374Z,7.40
2023-01-10T09:25:57.380Z,6.10
2023-01-10T09:26:57.362Z,6.70
2023-01-10T09:27:57.345Z,6.50
2023-01-10T09:28:57.330Z,6.50
2023-01-10T09:29:57.325Z,6.20
2023-01-10T09:30:57.309Z,6.10
2023-01-10T09:31:57.315Z,5.40
2023-01-10T09:32:57.291Z,6.50
2023-01-10T09:33:57.281Z,6.10
2023-01-10T09:34:57.264Z,6.50
2023-01-10T09:35:57.262Z,6.40
2023-01-10T09:36:57.264Z,6.00
2023-01-10T09:37:57.233Z,6.30
2023-01-10T09:38:57.223Z,5.80
2023-01-10T09:39:57.215Z,5.90
2023-01-10T09:40:57.201Z,5.80
2023-01-10T09:41:57.196Z,5.80
2023-01-10T09:42:57.201Z,6.30
2023-01-10T09:43:58.331Z,6.60
2023-01-10T09:44:57.157Z,6.10
2023-01-10T09:45:57.153Z,6.50
2023-01-10T09:46:57.212Z,6.80
2023-01-10T09:47:57.136Z,6.60
2023-01-10T09:48:57.119Z,6.60
2023-01-10T09:49:57.109Z,6.50
2023-01-10T09:50:57.094Z,7.20
2023-01-10T09:51:58.980Z,7.50
2023-01-10T09:52:57.086Z,7.00
2023-01-10T09:54:10.069Z,7.40
2023-01-10T09:54:57.062Z,7.30
2023-01-10T09:55:57.046Z,7.80
2023-01-10T09:56:57.039Z,6.80
2023-01-10T09:57:57.041Z,6.40
2023-01-10T09:58:57.021Z,6.60
2023-01-10T09:59:56.999Z,7.50
2023-01-10T10:00:57.026Z,7.60
2023-01-10T10:01:56.973Z,7.40
2023-01-10T10:02:57.047Z,7.90
2023-01-10T10:03:57.037Z,8.10
2023-01-10T10:04:56.948Z,7.80
2023-01-10T10:06:10.586Z,7.60
2023-01-10T10:06:56.939Z,8.10
2023-01-10T10:07:56.922Z,7.60
2023-01-10T10:08:56.900Z,8.10
2023-01-10T10:09:56.888Z,7.50
2023-01-10T10:10:56.880Z,7.10
2023-01-10T10:11:56.863Z,7.20
2023-01-10T10:12:56.867Z,8.00
2023-01-10T10:13:56.850Z,7.80
2023-01-10T10:14:56.840Z,7.20
2023-01-10T10:15:59.054Z,8.00
2023-01-10T10:16:56.822Z,8.10
2023-01-10T10:17:56.813Z,7.60
2023-01-10T10:18:56.791Z,9.20
2023-01-10T10:19:56.780Z,8.40
2023-01-10T10:20:56.777Z,8.20
2023-01-10T10:21:56.762Z,8.60
2023-01-10T10:22:56.766Z,8.30
2023-01-10T10:23:56.735Z,8.40
2023-01-10T10:24:56.724Z,8.60
2023-01-10T10:25:56.714Z,7.40
2023-01-10T10:26:56.704Z,8.70
2023-01-10T10:27:56.698Z,7.90
2023-01-10T10:28:56.685Z,8.70
2023-01-10T10:29:56.670Z,8.50
2023-01-10T10:30:56.663Z,8.50
2023-01-10T10:31:56.649Z,8.90
2023-01-10T10:32:56.650Z,9.60
2023-01-10T10:33:56.626Z,9.00
2023-01-10T10:34:56.617Z,9.10
2023-01-10T10:35:56.601Z,10.10
2023-01-10T10:36:56.604Z,9.90
2023-01-10T10:37:56.588Z,9.10
2023-01-10T10:38:56.575Z,9.80
2023-01-10T10:39:56.578Z,10.10
2023-01-10T10:40:56.563Z,9.70
2023-01-10T10:41:56.535Z,10.30
2023-01-10T10:42:56.540Z,9.60
2023-01-10T10:43:56.512Z,10.20
2023-01-10T10:44:56.515Z,10.40
2023-01-10T10:45:56.499Z,9.80
2023-01-10T10:46:56.484Z,10.40
2023-01-10T10:47:56.481Z,10.40
2023-01-10T10:48:56.466Z,10.00
2023-01-10T10:49:56.456Z,9.70
2023-01-10T10:50:56.437Z,9.30
2023-01-10T10:51:56.430Z,9.80
2023-01-10T10:52:56.427Z,9.90
2023-01-10T10:53:56.418Z,9.80
2023-01-10T10:54:56.404Z,10.10
2023-01-10T10:55:56.379Z,9.20
2023-01-10T10:56:56.372Z,10.00
2023-01-10T10:58:00.574Z,10.10
2023-01-10T10:58:56.398Z,9.30
2023-01-10T10:59:56.366Z,9.10
2023-01-10T11:00:56.403Z,9.50
2023-01-10T11:01:56.464Z,9.60
2023-01-10T11:02:56.321Z,10.00
2023-01-10T11:03:56.297Z,8.90
2023-01-10T11:04:56.329Z,9.20
2023-01-10T11:05:56.289Z,8.80
2023-01-10T11:06:56.262Z,9.00
2023-01-10T11:07:56.261Z,9.50
2023-01-10T11:08:56.247Z,9.70
2023-01-10T11:09:56.227Z,9.00
2023-01-10T11:10:56.221Z,9.20
2023-01-10T11:11:56.201Z,9.20
2023-01-10T11:12:56.201Z,8.40
2023-01-10T11:13:56.192Z,8.50
2023-01-10T11:14:56.173Z,8.00
2023-01-10T11:15:56.433Z,8.80
2023-01-10T11:16:56.156Z,8.50
2023-01-10T11:17:56.139Z,9.30
2023-01-10T11:18:56.141Z,7.60
2023-01-10T11:19:56.130Z,8.30
2023-01-10T11:20:56.109Z,8.50
2023-01-10T11:21:56.092Z,8.00
2023-01-10T11:22:56.085Z,8.40
2023-01-10T11:23:56.079Z,8.90
2023-01-10T11:24:56.064Z,8.80
2023-01-10T11:25:56.050Z,7.90
2023-01-10T11:26:56.040Z,7.80
2023-01-10T11:27:56.028Z,7.70
2023-01-10T11:28:56.029Z,8.10
2023-01-10T11:29:56.001Z,6.40
2023-01-10T11:30:56.096Z,6.10
2023-01-10T11:31:56.095Z,7.40
2023-01-10T11:32:55.991Z,8.10
2023-01-10T11:33:55.975Z,8.70
2023-01-10T11:34:55.966Z,7.80
2023-01-10T11:35:55.939Z,7.20
2023-01-10T11:36:55.937Z,7.90
2023-01-10T11:37:55.919Z,7.50
2023-01-10T11:38:55.977Z,8.40
2023-01-10T11:39:55.893Z,7.90
2023-01-10T11:40:55.891Z,6.80
2023-01-10T11:41:55.872Z,7.40
2023-01-10T11:42:57.104Z,7.80
2023-01-10T11:43:55.860Z,6.90
2023-01-10T11:44:55.847Z,7.80
2023-01-10T11:45:55.840Z,5.10
2023-01-10T11:46:55.823Z,6.20
2023-01-10T11:47:55.802Z,6.60
2023-01-10T11:49:05.787Z,6.60
2023-01-10T11:49:55.788Z,6.10
2023-01-10T11:50:55.779Z,6.30
2023-01-10T11:51:55.767Z,5.90
2023-01-10T11:52:55.769Z,7.00
2023-01-10T11:53:55.750Z,6.20
2023-01-10T11:54:57.705Z,6.60
2023-01-10T11:55:55.726Z,5.80
2023-01-10T11:56:55.716Z,6.10
2023-01-10T11:57:55.694Z,6.20
2023-01-10T11:58:55.712Z,5.90
2023-01-10T11:59:55.678Z,5.80
2023-01-10T12:00:58.055Z,6.50
2023-01-10T12:01:55.680Z,6.20
2023-01-10T12:02:55.651Z,5.60
2023-01-10T12:03:55.640Z,6.80
2023-01-10T12:04:55.712Z,5.80
2023-01-10T12:05:55.624Z,7.30
2023-01-10T12:06:55.612Z,6.10
2023-01-10T12:07:55.605Z,5.20
2023-01-10T12:08:55.593Z,5.20
2023-01-10T12:09:55.562Z,5.30
2023-01-10T12:10:55.556Z,5.70
2023-01-10T12:11:55.538Z,5.80
2023-01-10T12:12:55.544Z,5.30
2023-01-10T12:13:55.528Z,5.10
2023-01-10T12:14:55.511Z,5.90
2023-01-10T12:15:55.506Z,4.50
2023-01-10T12:16:55.571Z,4.80
2023-01-10T12:17:55.480Z,5.20
2023-01-10T12:18:55.485Z,5.50
2023-01-10T12:19:55.465Z,5.10
2023-01-10T12:20:55.470Z,4.10
2023-01-10T12:21:55.551Z,5.10
2023-01-10T12:22:57.646Z,4.80
2023-01-10T12:23:55.422Z,5.40
2023-01-10T12:24:55.413Z,4.90
2023-01-10T12:26:10.799Z,4.20
2023-01-10T12:26:55.405Z,5.30
2023-01-10T12:27:55.364Z,4.70
2023-01-10T12:28:57.348Z,4.50
2023-01-10T12:29:55.373Z,4.60
2023-01-10T12:30:55.461Z,4.70
2023-01-10T12:31:55.329Z,4.70
2023-01-10T12:32:55.329Z,4.50
2023-01-10T12:33:55.315Z,4.80
2023-01-10T12:34:57.716Z,3.90
2023-01-10T12:35:55.271Z,4.10
2023-01-10T12:36:55.282Z,4.50
2023-01-10T12:37:55.253Z,4.70
2023-01-10T12:38:55.247Z,4.60
2023-01-10T12:39:55.237Z,4.70
2023-01-10T12:40:56.936Z,4.20
2023-01-10T12:41:55.212Z,4.70
2023-01-10T12:42:55.209Z,4.40
2023-01-10T12:43:55.185Z,4.40
2023-01-10T12:44:55.198Z,4.90
2023-01-10T12:45:55.177Z,4.00
2023-01-10T12:47:13.117Z,4.30
2023-01-10T12:47:55.307Z,4.30
2023-01-10T12:48:55.138Z,4.40
2023-01-10T12:49:55.138Z,4.20
2023-01-10T12:50:55.117Z,4.20
2023-01-10T12:51:55.101Z,3.90
2023-01-10T12:52:55.089Z,4.30
2023-01-10T12:53:55.079Z,4.20
2023-01-10T12:54:55.076Z,4.30
2023-01-10T12:55:55.060Z,4.40
2023-01-10T12:56:55.044Z,4.00
2023-01-10T12:57:55.036Z,3.80
2023-01-10T12:58:55.019Z,4.50
2023-01-10T12:59:55.063Z,4.30
2023-01-10T13:00:55.061Z,4.20
2023-01-10T13:01:55.173Z,4.10
2023-01-10T13:02:55.047Z,4.00
2023-01-10T13:03:54.973Z,3.90
2023-01-10T13:04:54.972Z,4.70
2023-01-10T13:05:54.943Z,4.40
2023-01-10T13:06:54.935Z,4.10
2023-01-10T13:07:54.976Z,3.80
2023-01-10T13:08:54.917Z,4.20
2023-01-10T13:09:54.913Z,3.50
2023-01-10T13:10:54.890Z,3.70
2023-01-10T13:11:54.879Z,4.00
2023-01-10T13:12:54.922Z,3.90
2023-01-10T13:13:54.858Z,3.90
2023-01-10T13:14:54.862Z,4.00
2023-01-10T13:15:54.847Z,3.70
2023-01-10T13:16:54.827Z,3.30
2023-01-10T13:17:54.810Z,3.80
2023-01-10T13:18:54.814Z,4.40